Pere C — WDF8995 — position and weather

sailwx.info

Track history (hours):
 
Tides and Currents Weather Stations Pressure Air Temp Water Temp Dewpoint Dewpoint Depression Visibility Wind Speed Wind Dir Waves Ship Positions

Pere C

Owner: CVITANOVIC BOAT SERVICE, INC, BELLE CHASSE, LA. More information available from US FCC via Universal Licensing System and Coast Guard Vessel Documentation Center.

Last reported at 2018-May-07 15:44 UTC. Time now 2018-Jun-20 09:10 UTC.
Position N 29°35' W 090°36'.
Warning: this ship's position is 43 days out of date.

Length 22 m; draft 2 m.

Type: Towing. MMSI: 367500720.

Date/timePositionNaut miles runAvg speedWind from/ knotsBaromVisibWave heightAir tempDewpointWater temp
2018-May-07 15:44N 29°35' W 090°36'1 6.1
2018-May-07 15:30N 29°35' W 090°37'3 6.2
2018-May-07 15:00N 29°36' W 090°40'2 4.0
2018-May-07 14:30N 29°36' W 090°43'2 4.5
2018-May-07 14:00N 29°33' W 090°42'1 1.6
2018-May-07 13:30N 29°34' W 090°42'0 0.1
2018-May-07 13:00N 29°34' W 090°42'0 0.0
2018-May-07 12:30N 29°34' W 090°42'0 0.0
2018-May-07 12:00N 29°34' W 090°42'0 0.0
2018-May-07 11:30N 29°34' W 090°42'0 0.0
2018-May-07 11:00N 29°34' W 090°42'0 0.0
2018-May-07 10:30N 29°34' W 090°42'0 0.0
2018-May-07 10:00N 29°34' W 090°42'0 0.0
2018-May-07 09:30N 29°34' W 090°42'0 0.0
2018-May-07 09:00N 29°34' W 090°42'0 0.0
2018-May-07 08:30N 29°34' W 090°42'0 0.0
2018-May-07 08:00N 29°34' W 090°42'0 0.0
2018-May-07 07:30N 29°34' W 090°42'0 0.0
2018-May-07 07:00N 29°34' W 090°42'0 0.0
2018-May-07 06:30N 29°34' W 090°42'0 0.0
2018-May-07 06:00N 29°34' W 090°42'0 0.0
2018-May-07 05:30N 29°34' W 090°42'0 0.0
2018-May-07 05:00N 29°34' W 090°42'0 0.0
2018-May-07 04:30N 29°34' W 090°42'0 0.0
2018-May-07 04:00N 29°34' W 090°42'0 0.0
2018-May-07 03:30N 29°34' W 090°42'0 0.0
2018-May-07 03:00N 29°34' W 090°42'0 0.0
2018-May-07 02:30N 29°34' W 090°42'0 0.0
2018-May-07 02:00N 29°34' W 090°42'0 0.0
2018-May-07 01:30N 29°34' W 090°42'0 0.0
2018-May-07 01:00N 29°34' W 090°42'0 0.0
2018-May-07 00:30N 29°34' W 090°42'0 0.0
2018-May-07 00:00N 29°34' W 090°42'0 0.0
2018-May-06 23:30N 29°34' W 090°42'0 0.0
2018-May-06 23:00N 29°34' W 090°42'0 0.0
2018-May-06 22:30N 29°34' W 090°42'0 0.0
2018-May-06 22:00N 29°34' W 090°42'0 0.0
2018-May-06 21:30N 29°34' W 090°42'0 0.0
2018-May-06 21:00N 29°34' W 090°42'0 0.0
2018-May-06 20:30N 29°34' W 090°42'0 0.0
2018-May-06 20:00N 29°34' W 090°42'0 0.0
2018-May-06 19:30N 29°34' W 090°42'0 0.0
2018-May-06 19:00N 29°34' W 090°42'0 0.0
2018-May-06 18:30N 29°34' W 090°42'0 0.0
2018-May-06 18:00N 29°34' W 090°42'0 0.0
2018-May-06 17:30N 29°34' W 090°42'0 0.0
2018-May-06 17:00N 29°34' W 090°42'0 0.0
2018-May-06 16:31N 29°34' W 090°42'1 1.2
2018-May-06 16:00N 29°34' W 090°43'3 5.4
2018-May-06 15:29N 29°37' W 090°42'4 6.3
2018-May-06 14:50N 29°35' W 090°38'2 5.7
2018-May-06 14:30N 29°35' W 090°36'  
Track history (hours):
 
Tides and Currents Weather Stations Pressure Air Temp Water Temp Dewpoint Dewpoint Depression Visibility Wind Speed Wind Dir Waves Ship Positions

Pere C

Owner: CVITANOVIC BOAT SERVICE, INC, BELLE CHASSE, LA. More information available from US FCC via Universal Licensing System and Coast Guard Vessel Documentation Center.

Last reported at 2018-May-07 15:44 UTC. Time now 2018-Jun-20 09:10 UTC.
Position N 29°35' W 090°36'.
Warning: this ship's position is 43 days out of date.

Length 22 m; draft 2 m.

Type: Towing. MMSI: 367500720.

Date/timePositionNaut miles runAvg speedWind from/ knotsBaromVisibWave heightAir tempDewpointWater temp
2018-May-07 15:44N 29°35' W 090°36'1 6.1
2018-May-07 15:30N 29°35' W 090°37'3 6.2
2018-May-07 15:00N 29°36' W 090°40'2 4.0
2018-May-07 14:30N 29°36' W 090°43'2 4.5
2018-May-07 14:00N 29°33' W 090°42'1 1.6
2018-May-07 13:30N 29°34' W 090°42'0 0.1
2018-May-07 13:00N 29°34' W 090°42'0 0.0
2018-May-07 12:30N 29°34' W 090°42'0 0.0
2018-May-07 12:00N 29°34' W 090°42'0 0.0
2018-May-07 11:30N 29°34' W 090°42'0 0.0
2018-May-07 11:00N 29°34' W 090°42'0 0.0
2018-May-07 10:30N 29°34' W 090°42'0 0.0
2018-May-07 10:00N 29°34' W 090°42'0 0.0
2018-May-07 09:30N 29°34' W 090°42'0 0.0
2018-May-07 09:00N 29°34' W 090°42'0 0.0
2018-May-07 08:30N 29°34' W 090°42'0 0.0
2018-May-07 08:00N 29°34' W 090°42'0 0.0
2018-May-07 07:30N 29°34' W 090°42'0 0.0
2018-May-07 07:00N 29°34' W 090°42'0 0.0
2018-May-07 06:30N 29°34' W 090°42'0 0.0
2018-May-07 06:00N 29°34' W 090°42'0 0.0
2018-May-07 05:30N 29°34' W 090°42'0 0.0
2018-May-07 05:00N 29°34' W 090°42'0 0.0
2018-May-07 04:30N 29°34' W 090°42'0 0.0
2018-May-07 04:00N 29°34' W 090°42'0 0.0
2018-May-07 03:30N 29°34' W 090°42'0 0.0
2018-May-07 03:00N 29°34' W 090°42'0 0.0
2018-May-07 02:30N 29°34' W 090°42'0 0.0
2018-May-07 02:00N 29°34' W 090°42'0 0.0
2018-May-07 01:30N 29°34' W 090°42'0 0.0
2018-May-07 01:00N 29°34' W 090°42'0 0.0
2018-May-07 00:30N 29°34' W 090°42'0 0.0
2018-May-07 00:00N 29°34' W 090°42'0 0.0
2018-May-06 23:30N 29°34' W 090°42'0 0.0
2018-May-06 23:00N 29°34' W 090°42'0 0.0
2018-May-06 22:30N 29°34' W 090°42'0 0.0
2018-May-06 22:00N 29°34' W 090°42'0 0.0
2018-May-06 21:30N 29°34' W 090°42'0 0.0
2018-May-06 21:00N 29°34' W 090°42'0 0.0
2018-May-06 20:30N 29°34' W 090°42'0 0.0
2018-May-06 20:00N 29°34' W 090°42'0 0.0
2018-May-06 19:30N 29°34' W 090°42'0 0.0
2018-May-06 19:00N 29°34' W 090°42'0 0.0
2018-May-06 18:30N 29°34' W 090°42'0 0.0
2018-May-06 18:00N 29°34' W 090°42'0 0.0
2018-May-06 17:30N 29°34' W 090°42'0 0.0
2018-May-06 17:00N 29°34' W 090°42'0 0.0
2018-May-06 16:31N 29°34' W 090°42'1 1.2
2018-May-06 16:00N 29°34' W 090°43'3 5.4
2018-May-06 15:29N 29°37' W 090°42'4 6.3
2018-May-06 14:50N 29°35' W 090°38'2 5.7
2018-May-06 14:30N 29°35' W 090°36'  

Dump ship's entire track history